createdAt,value
2023-04-08T00:01:33.588Z,98886.84
2023-04-08T00:04:00.254Z,98874.59
2023-04-08T00:06:27.325Z,98885.31
2023-04-08T00:08:53.853Z,98880.28
2023-04-08T00:11:20.416Z,98882.69
2023-04-08T00:13:47.110Z,98879.81
2023-04-08T00:16:13.511Z,98878.97
2023-04-08T00:18:40.012Z,98884.06
2023-04-08T00:21:06.429Z,98881.31
2023-04-08T00:23:32.964Z,98882.38
2023-04-08T00:25:59.408Z,98884.66
2023-04-08T00:28:25.887Z,98888.47
2023-04-08T00:30:53.291Z,98885.72
2023-04-08T00:33:19.747Z,98882.66
2023-04-08T00:35:46.320Z,98890.13
2023-04-08T00:38:12.731Z,98886.25
2023-04-08T00:40:39.221Z,98888.97
2023-04-08T00:43:05.929Z,98874.84
2023-04-08T00:45:33.636Z,98891.38
2023-04-08T00:48:00.584Z,98889.28
2023-04-08T00:50:27.036Z,98884.22
2023-04-08T00:52:53.524Z,98886.97
2023-04-08T00:55:20.101Z,98889.00
2023-04-08T00:57:47.566Z,98890.00
2023-04-08T01:00:15.294Z,98893.69
2023-04-08T01:03:05.921Z,98891.34
2023-04-08T01:05:32.472Z,98901.53
2023-04-08T01:08:01.997Z,98896.28
2023-04-08T01:10:31.407Z,98903.34
2023-04-08T01:13:01.762Z,98891.56
2023-04-08T01:15:29.766Z,98906.44
2023-04-08T01:17:58.981Z,98904.78
2023-04-08T01:20:27.352Z,98902.88
2023-04-08T01:23:12.630Z,98905.91
2023-04-08T01:25:39.615Z,98899.50
2023-04-08T01:28:10.059Z,98895.75
2023-04-08T01:30:38.513Z,98899.41
2023-04-08T01:33:06.096Z,98905.22
2023-04-08T01:35:33.220Z,98903.97
2023-04-08T01:38:01.362Z,98902.56
2023-04-08T01:40:27.922Z,98903.00
2023-04-08T01:42:56.343Z,98904.63
2023-04-08T01:45:24.114Z,98909.69
2023-04-08T01:47:52.256Z,98903.59
2023-04-08T01:50:19.791Z,98907.25
2023-04-08T01:52:49.229Z,98906.44
2023-04-08T01:55:17.019Z,98903.47
2023-04-08T01:57:48.865Z,98904.00
2023-04-08T02:00:18.128Z,98905.22
2023-04-08T02:02:47.360Z,98903.38
2023-04-08T02:05:14.431Z,98909.09
2023-04-08T02:07:41.010Z,98903.00
2023-04-08T02:10:08.008Z,98907.44
2023-04-08T02:12:34.861Z,98896.66
2023-04-08T02:15:01.486Z,98910.75
2023-04-08T02:17:36.187Z,98916.59
2023-04-08T02:20:10.522Z,98917.09
2023-04-08T02:22:39.664Z,98916.50
2023-04-08T02:25:11.609Z,98917.25
2023-04-08T02:27:40.238Z,98919.78
2023-04-08T02:30:08.149Z,98916.84
2023-04-08T02:32:35.301Z,98920.81
2023-04-08T02:35:03.974Z,98916.88
2023-04-08T02:37:31.709Z,98927.16
2023-04-08T02:39:58.649Z,98923.84
2023-04-08T02:42:25.070Z,98933.25
2023-04-08T02:44:51.931Z,98922.81
2023-04-08T02:47:18.342Z,98929.03
2023-04-08T02:49:44.792Z,98932.94
2023-04-08T02:52:11.343Z,98928.22
2023-04-08T02:54:37.792Z,98931.78
2023-04-08T02:57:04.230Z,98931.59
2023-04-08T02:59:30.845Z,98935.06
2023-04-08T03:01:57.290Z,98934.22
2023-04-08T03:04:23.785Z,98936.78
2023-04-08T03:06:50.223Z,98941.38
2023-04-08T03:09:17.053Z,98936.56
2023-04-08T03:11:44.792Z,98938.63
2023-04-08T03:14:11.222Z,98939.31
2023-04-08T03:16:37.774Z,98938.06
2023-04-08T03:19:04.285Z,98941.66
2023-04-08T03:21:31.779Z,98939.28
2023-04-08T03:23:58.311Z,98935.47
2023-04-08T03:26:27.081Z,98946.09
2023-04-08T03:28:53.538Z,98945.34
2023-04-08T03:31:21.344Z,98947.97
2023-04-08T03:33:47.830Z,98940.47
2023-04-08T03:36:14.286Z,98948.03
2023-04-08T03:38:40.810Z,98953.22
2023-04-08T03:41:07.276Z,98957.16
2023-04-08T03:43:34.395Z,98957.41
2023-04-08T03:46:01.668Z,98956.00
2023-04-08T03:48:28.259Z,98951.69
2023-04-08T03:50:54.719Z,98961.44
2023-04-08T03:53:21.270Z,98955.72
2023-04-08T03:55:50.633Z,98953.44
2023-04-08T03:58:17.050Z,98941.16
2023-04-08T04:00:43.485Z,98950.81
2023-04-08T04:03:13.012Z,98958.94
2023-04-08T04:05:40.284Z,98955.22
2023-04-08T04:08:06.932Z,98962.19
2023-04-08T04:10:33.399Z,98959.00
2023-04-08T04:12:59.873Z,98958.81
2023-04-08T04:15:26.366Z,98958.06
2023-04-08T04:17:52.993Z,98969.16
2023-04-08T04:20:19.886Z,98962.16
2023-04-08T04:22:46.434Z,98965.13
2023-04-08T04:25:12.865Z,98960.19
2023-04-08T04:27:39.428Z,98963.22
2023-04-08T04:30:07.245Z,98968.13
2023-04-08T04:32:33.729Z,98970.47
2023-04-08T04:35:00.340Z,98970.59
2023-04-08T04:37:27.405Z,98972.78
2023-04-08T04:39:53.807Z,98977.84
2023-04-08T04:42:20.333Z,98977.00
2023-04-08T04:44:47.794Z,98963.13
2023-04-08T04:47:14.283Z,98961.81
2023-04-08T04:49:40.685Z,98960.91
2023-04-08T04:52:07.493Z,98967.53
2023-04-08T04:54:33.912Z,98967.75
2023-04-08T04:57:00.976Z,98958.81
2023-04-08T04:59:27.596Z,98971.13
2023-04-08T05:01:54.154Z,98966.28
2023-04-08T05:04:20.636Z,98971.53
2023-04-08T05:06:47.008Z,98974.38
2023-04-08T05:09:13.454Z,98977.00
2023-04-08T05:11:39.916Z,98980.09
2023-04-08T05:14:07.195Z,98978.16
2023-04-08T05:16:34.597Z,98987.25
2023-04-08T05:19:01.079Z,98988.63
2023-04-08T05:21:27.727Z,98986.63
2023-04-08T05:23:54.282Z,98994.19
2023-04-08T05:26:21.805Z,98993.53
2023-04-08T05:28:49.119Z,99000.16
2023-04-08T05:31:16.640Z,99000.25
2023-04-08T05:33:43.142Z,99001.84
2023-04-08T05:36:11.278Z,98995.19
2023-04-08T05:38:38.405Z,98996.97
2023-04-08T05:41:04.915Z,98999.78
2023-04-08T05:43:33.546Z,99004.38
2023-04-08T05:46:00.081Z,99000.25
2023-04-08T05:48:26.561Z,99006.44
2023-04-08T05:50:52.986Z,98999.56
2023-04-08T05:53:19.384Z,99006.75
2023-04-08T05:55:45.989Z,99000.59
2023-04-08T05:58:12.470Z,99006.41
2023-04-08T06:00:38.826Z,99007.59
2023-04-08T06:03:05.462Z,99019.78
2023-04-08T06:05:32.716Z,99025.00
2023-04-08T06:07:59.323Z,99026.28
2023-04-08T06:10:25.897Z,99019.75
2023-04-08T06:12:52.410Z,99027.19
2023-04-08T06:15:19.163Z,99028.31
2023-04-08T06:17:45.948Z,99027.94
2023-04-08T06:20:12.529Z,99028.28
2023-04-08T06:22:39.018Z,99029.38
2023-04-08T06:25:06.053Z,99027.25
2023-04-08T06:27:32.581Z,99033.25
2023-04-08T06:29:59.203Z,99036.41
2023-04-08T06:32:25.804Z,99036.75
2023-04-08T06:34:52.328Z,99043.78
2023-04-08T06:37:18.739Z,99048.25
2023-04-08T06:39:45.449Z,99051.66
2023-04-08T06:42:11.879Z,99049.28
2023-04-08T06:44:38.408Z,99050.44
2023-04-08T06:47:04.802Z,99053.28
2023-04-08T06:49:31.275Z,99052.78
2023-04-08T06:51:57.762Z,99054.84
2023-04-08T06:54:24.181Z,99050.50
2023-04-08T06:56:50.826Z,99056.44
2023-04-08T06:59:17.489Z,99065.97
2023-04-08T07:01:44.138Z,99053.66
2023-04-08T07:04:10.743Z,99060.31
2023-04-08T07:06:37.309Z,99062.06
2023-04-08T07:09:04.662Z,99060.34
2023-04-08T07:11:31.203Z,99066.19
2023-04-08T07:13:57.609Z,99062.16
2023-04-08T07:16:24.083Z,99067.88
2023-04-08T07:18:51.914Z,99059.56
2023-04-08T07:21:18.548Z,99070.75
2023-04-08T07:23:44.967Z,99062.97
2023-04-08T07:26:11.457Z,99073.16
2023-04-08T07:28:37.917Z,99073.78
2023-04-08T07:31:17.919Z,99070.66
2023-04-08T07:33:45.553Z,99070.63
2023-04-08T07:36:13.165Z,99075.97
2023-04-08T07:38:40.915Z,99072.94
2023-04-08T07:41:07.614Z,99086.56
2023-04-08T07:43:34.698Z,99091.53
2023-04-08T07:46:03.286Z,99090.91
2023-04-08T07:48:30.867Z,99088.50
2023-04-08T07:51:10.069Z,99081.88
2023-04-08T07:53:37.251Z,99085.03
2023-04-08T07:56:06.653Z,99085.16
2023-04-08T07:58:33.343Z,99091.06
2023-04-08T08:01:00.078Z,99089.16
2023-04-08T08:03:27.309Z,99087.47
2023-04-08T08:05:53.859Z,99083.34
2023-04-08T08:08:20.230Z,99091.22
2023-04-08T08:10:46.649Z,99094.00
2023-04-08T08:13:16.880Z,99101.84
2023-04-08T08:15:43.379Z,99098.69
2023-04-08T08:18:09.920Z,99102.19
2023-04-08T08:20:36.634Z,99100.16
2023-04-08T08:23:03.208Z,99089.91
2023-04-08T08:25:29.663Z,99091.31
2023-04-08T08:27:56.206Z,99094.94
2023-04-08T08:30:22.852Z,99104.34
2023-04-08T08:32:50.978Z,99102.88
2023-04-08T08:35:17.761Z,99095.97
2023-04-08T08:37:44.229Z,99108.06
2023-04-08T08:40:11.476Z,99116.84
2023-04-08T08:42:39.224Z,99124.91
2023-04-08T08:45:07.072Z,99123.56
2023-04-08T08:47:33.830Z,99128.03
2023-04-08T08:50:00.688Z,99127.38
2023-04-08T08:52:27.067Z,99130.28
2023-04-08T08:54:59.799Z,99130.66
2023-04-08T08:57:27.174Z,99126.09
2023-04-08T08:59:53.847Z,99127.19
2023-04-08T09:02:29.831Z,99131.84
2023-04-08T09:05:04.437Z,99142.25
2023-04-08T09:07:36.781Z,99134.75
2023-04-08T09:10:04.239Z,99139.91
2023-04-08T09:12:31.581Z,99141.50
2023-04-08T09:15:08.906Z,99144.63
2023-04-08T09:17:40.283Z,99141.66
2023-04-08T09:20:12.086Z,99144.53
2023-04-08T09:23:01.459Z,99140.03
2023-04-08T09:25:32.931Z,99144.38
2023-04-08T09:28:00.146Z,99151.22
2023-04-08T09:30:27.770Z,99159.75
2023-04-08T09:32:55.973Z,99153.84
2023-04-08T09:35:24.105Z,99146.56
2023-04-08T09:37:50.846Z,99148.03
2023-04-08T09:40:21.267Z,99143.47
2023-04-08T09:42:52.292Z,99150.78
2023-04-08T09:45:19.305Z,99155.81
2023-04-08T09:48:09.236Z,99152.31
2023-04-08T09:50:45.833Z,99150.19
2023-04-08T09:53:34.625Z,99157.03
2023-04-08T09:56:07.255Z,99160.84
2023-04-08T09:58:46.220Z,99166.84
2023-04-08T10:01:15.960Z,99166.25
2023-04-08T10:03:52.791Z,99166.25
2023-04-08T10:06:21.733Z,99164.28
2023-04-08T10:08:48.466Z,99165.00
2023-04-08T10:11:16.588Z,99172.13
2023-04-08T10:13:43.429Z,99172.72
2023-04-08T10:16:25.872Z,99172.41
2023-04-08T10:18:55.804Z,99172.69
2023-04-08T10:21:34.410Z,99172.56
2023-04-08T10:24:06.263Z,99179.06
2023-04-08T10:26:35.851Z,99175.47
2023-04-08T10:29:17.735Z,99170.88
2023-04-08T10:31:45.138Z,99156.75
2023-04-08T10:34:18.987Z,99147.38
2023-04-08T10:36:46.270Z,99156.47
2023-04-08T10:39:14.267Z,99156.34
2023-04-08T10:41:45.490Z,99147.47
2023-04-08T10:44:22.411Z,99157.88
2023-04-08T10:46:50.443Z,99156.25
2023-04-08T10:49:17.955Z,99152.19
2023-04-08T10:51:46.016Z,99161.88
2023-04-08T10:54:14.653Z,99150.22
2023-04-08T10:56:49.448Z,99152.06
2023-04-08T10:59:17.961Z,99149.63
2023-04-08T11:01:46.475Z,99148.44
2023-04-08T11:04:23.294Z,99144.84
2023-04-08T11:06:50.181Z,99156.75
2023-04-08T11:09:16.620Z,99150.75
2023-04-08T11:11:45.369Z,99150.09
2023-04-08T11:14:12.606Z,99156.91
2023-04-08T11:16:39.449Z,99147.84
2023-04-08T11:19:07.093Z,99150.94
2023-04-08T11:21:37.557Z,99145.75
2023-04-08T11:24:09.928Z,99140.63
2023-04-08T11:26:37.276Z,99144.09
2023-04-08T11:29:04.533Z,99142.91
2023-04-08T11:31:31.946Z,99139.81
2023-04-08T11:33:58.440Z,99139.22
2023-04-08T11:36:25.262Z,99147.34
2023-04-08T11:38:54.092Z,99141.16
2023-04-08T11:41:22.354Z,99139.78
2023-04-08T11:43:53.154Z,99132.06
2023-04-08T11:46:20.328Z,99133.97
2023-04-08T11:49:03.966Z,99136.66
2023-04-08T11:51:30.511Z,99139.66
2023-04-08T11:53:57.461Z,99139.78
2023-04-08T11:56:26.303Z,99136.72
2023-04-08T11:58:53.206Z,99138.28
2023-04-08T12:01:21.004Z,99139.63
2023-04-08T12:03:58.557Z,99140.59
2023-04-08T12:06:27.272Z,99145.72
2023-04-08T12:08:57.187Z,99144.06
2023-04-08T12:11:24.385Z,99142.81
2023-04-08T12:13:51.290Z,99153.66
2023-04-08T12:16:18.793Z,99150.31
2023-04-08T12:18:45.373Z,99149.88
2023-04-08T12:21:12.006Z,99144.50
2023-04-08T12:23:38.560Z,99153.25
2023-04-08T12:26:05.228Z,99154.13
2023-04-08T12:28:31.669Z,99156.84
2023-04-08T12:30:58.149Z,99151.09
2023-04-08T12:33:24.596Z,99153.69
2023-04-08T12:35:51.415Z,99150.69
2023-04-08T12:38:17.860Z,99149.47
2023-04-08T12:40:44.328Z,99149.97
2023-04-08T12:43:11.179Z,99149.97
2023-04-08T12:45:38.009Z,99147.44
2023-04-08T12:48:04.521Z,99140.41
2023-04-08T12:50:31.046Z,99139.09
2023-04-08T12:52:57.450Z,99135.38
2023-04-08T12:55:26.677Z,99138.22
2023-04-08T12:57:53.297Z,99133.97
2023-04-08T13:00:19.853Z,99136.81
2023-04-08T13:02:47.244Z,99142.81
2023-04-08T13:05:13.755Z,99142.00
2023-04-08T13:07:40.535Z,99144.06
2023-04-08T13:10:08.372Z,99140.63
2023-04-08T13:12:35.336Z,99146.44
2023-04-08T13:15:01.773Z,99140.38
2023-04-08T13:17:28.401Z,99147.56
2023-04-08T13:19:54.884Z,99150.50
2023-04-08T13:22:21.377Z,99149.66
2023-04-08T13:24:47.884Z,99155.22
2023-04-08T13:27:14.366Z,99155.56
2023-04-08T13:29:40.768Z,99147.66
2023-04-08T13:32:07.219Z,99148.22
2023-04-08T13:34:33.662Z,99145.28
2023-04-08T13:37:00.115Z,99148.59
2023-04-08T13:39:26.605Z,99147.88
2023-04-08T13:41:53.633Z,99149.63
2023-04-08T13:44:20.152Z,99141.16
2023-04-08T13:46:46.726Z,99146.16
2023-04-08T13:49:13.627Z,99149.34
2023-04-08T13:51:40.008Z,99142.16
2023-04-08T13:54:06.917Z,99146.00
2023-04-08T13:56:33.669Z,99136.56
2023-04-08T13:59:00.444Z,99132.69
2023-04-08T14:01:27.052Z,99140.81
2023-04-08T14:03:53.612Z,99131.88
2023-04-08T14:06:20.021Z,99130.88
2023-04-08T14:08:46.475Z,99126.91
2023-04-08T14:11:12.882Z,99129.41
2023-04-08T14:13:39.295Z,99128.22
2023-04-08T14:16:05.853Z,99141.28
2023-04-08T14:18:32.440Z,99140.00
2023-04-08T14:20:58.854Z,99148.06
2023-04-08T14:23:25.284Z,99137.03
2023-04-08T14:25:51.757Z,99146.97
2023-04-08T14:28:18.228Z,99148.97
2023-04-08T14:30:44.707Z,99150.91
2023-04-08T14:33:12.033Z,99147.06
2023-04-08T14:35:38.533Z,99145.69
2023-04-08T14:38:04.964Z,99147.59
2023-04-08T14:40:31.421Z,99142.94
2023-04-08T14:42:57.877Z,99145.84
2023-04-08T14:45:24.383Z,99141.44
2023-04-08T14:47:50.810Z,99139.16
2023-04-08T14:50:17.576Z,99151.47
2023-04-08T14:52:45.210Z,99140.16
2023-04-08T14:55:12.175Z,99141.16
2023-04-08T14:57:38.646Z,99137.09
2023-04-08T15:00:05.874Z,99144.63
2023-04-08T15:02:34.856Z,99151.53
2023-04-08T15:05:01.404Z,99138.97
2023-04-08T15:07:27.968Z,99138.41
2023-04-08T15:09:54.446Z,99149.81
2023-04-08T15:12:21.224Z,99141.25
2023-04-08T15:14:47.637Z,99142.16
2023-04-08T15:17:14.155Z,99144.47
2023-04-08T15:19:40.771Z,99146.69
2023-04-08T15:22:07.244Z,99140.22
2023-04-08T15:24:33.730Z,99152.78
2023-04-08T15:27:00.762Z,99150.09
2023-04-08T15:29:27.394Z,99146.91
2023-04-08T15:31:53.796Z,99148.44
2023-04-08T15:34:20.225Z,99141.16
2023-04-08T15:36:47.734Z,99141.41
2023-04-08T15:39:14.982Z,99143.00
2023-04-08T15:41:41.403Z,99143.22
2023-04-08T15:44:07.904Z,99145.50
2023-04-08T15:46:36.808Z,99147.72
2023-04-08T15:49:03.880Z,99148.91
2023-04-08T15:51:30.275Z,99148.81
2023-04-08T15:53:57.415Z,99143.16
2023-04-08T15:56:23.921Z,99146.28
2023-04-08T15:58:50.638Z,99149.88
2023-04-08T16:01:18.747Z,99155.25
2023-04-08T16:03:45.545Z,99151.34
2023-04-08T16:06:12.177Z,99151.03
2023-04-08T16:08:39.501Z,99158.00
2023-04-08T16:11:07.018Z,99147.63
2023-04-08T16:13:34.151Z,99150.22
2023-04-08T16:16:04.071Z,99165.16
2023-04-08T16:18:30.883Z,99162.47
2023-04-08T16:20:57.390Z,99152.50
2023-04-08T16:23:24.001Z,99160.78
2023-04-08T16:25:50.533Z,99158.66
2023-04-08T16:28:18.052Z,99166.94
2023-04-08T16:30:46.294Z,99167.53
2023-04-08T16:33:16.249Z,99167.09
2023-04-08T16:35:43.036Z,99162.59
2023-04-08T16:38:09.555Z,99171.50
2023-04-08T16:40:36.071Z,99171.94
2023-04-08T16:43:04.110Z,99174.31
2023-04-08T16:45:32.530Z,99177.97
2023-04-08T16:48:00.093Z,99178.66
2023-04-08T16:50:28.131Z,99182.59
2023-04-08T16:52:54.630Z,99178.94
2023-04-08T16:55:23.552Z,99189.59
2023-04-08T16:57:50.260Z,99184.53
2023-04-08T17:00:18.089Z,99193.13
2023-04-08T17:02:55.566Z,99186.06
2023-04-08T17:05:22.968Z,99183.16
2023-04-08T17:07:49.421Z,99187.59
2023-04-08T17:10:15.993Z,99194.19
2023-04-08T17:12:46.045Z,99200.78
2023-04-08T17:15:12.909Z,99205.88
2023-04-08T17:17:39.405Z,99205.84
2023-04-08T17:20:07.402Z,99202.13
2023-04-08T17:22:36.972Z,99216.00
2023-04-08T17:25:06.761Z,99206.59
2023-04-08T17:27:33.232Z,99212.34
2023-04-08T17:29:59.783Z,99219.41
2023-04-08T17:32:27.180Z,99216.28
2023-04-08T17:34:53.889Z,99211.13
2023-04-08T17:37:23.173Z,99217.25
2023-04-08T17:39:49.604Z,99217.81
2023-04-08T17:42:16.858Z,99219.94
2023-04-08T17:44:44.686Z,99224.19
2023-04-08T17:47:13.898Z,99229.75
2023-04-08T17:49:40.842Z,99232.28
2023-04-08T17:52:10.438Z,99220.06
2023-04-08T17:54:36.968Z,99225.91
2023-04-08T17:57:11.760Z,99234.53
2023-04-08T17:59:38.226Z,99231.28
2023-04-08T18:02:06.662Z,99239.03
2023-04-08T18:04:33.232Z,99240.78
2023-04-08T18:07:02.986Z,99235.44
2023-04-08T18:09:29.473Z,99237.50
2023-04-08T18:11:56.070Z,99240.75
2023-04-08T18:14:22.690Z,99250.84
2023-04-08T18:16:49.228Z,99259.03
2023-04-08T18:19:15.847Z,99261.22
2023-04-08T18:21:42.380Z,99264.53
2023-04-08T18:24:09.449Z,99263.91
2023-04-08T18:26:37.832Z,99268.91
2023-04-08T18:29:04.335Z,99263.25
2023-04-08T18:31:30.838Z,99275.22
2023-04-08T18:33:57.385Z,99282.75
2023-04-08T18:36:27.357Z,99283.47
2023-04-08T18:38:53.788Z,99277.56
2023-04-08T18:41:23.210Z,99280.03
2023-04-08T18:43:52.325Z,99284.03
2023-04-08T18:46:21.092Z,99286.41
2023-04-08T18:48:59.922Z,99286.75
2023-04-08T18:54:37.248Z,99300.69
2023-04-08T18:57:32.753Z,99292.00
2023-04-08T19:00:03.014Z,99293.69
2023-04-08T19:02:30.472Z,99291.75
2023-04-08T19:05:01.296Z,99295.88
2023-04-08T19:07:40.469Z,99300.72
2023-04-08T19:10:08.579Z,99300.22
2023-04-08T19:12:56.274Z,99291.41
2023-04-08T19:19:20.953Z,99301.41
2023-04-08T19:21:51.228Z,99307.00
2023-04-08T19:24:17.670Z,99312.94
2023-04-08T19:26:44.183Z,99310.16
2023-04-08T19:29:11.858Z,99310.88
2023-04-08T19:31:39.077Z,99306.78
2023-04-08T19:34:05.642Z,99318.97
2023-04-08T19:36:32.100Z,99324.69
2023-04-08T19:38:58.656Z,99316.09
2023-04-08T19:41:25.371Z,99319.94
2023-04-08T19:43:55.112Z,99326.59
2023-04-08T19:46:21.527Z,99318.03
2023-04-08T19:48:48.074Z,99319.00
2023-04-08T19:51:16.994Z,99320.56
2023-04-08T19:53:43.449Z,99316.94
2023-04-08T19:56:10.854Z,99317.19
2023-04-08T19:58:37.602Z,99322.31
2023-04-08T20:01:04.248Z,99322.19
2023-04-08T20:03:30.987Z,99321.72
2023-04-08T20:05:57.730Z,99321.72
2023-04-08T20:08:24.218Z,99324.88
2023-04-08T20:10:54.169Z,99328.72
2023-04-08T20:13:20.747Z,99330.53
2023-04-08T20:15:47.209Z,99327.25
2023-04-08T20:18:15.345Z,99336.31
2023-04-08T20:20:42.932Z,99336.19
2023-04-08T20:23:09.401Z,99335.94
2023-04-08T20:25:35.877Z,99337.38
2023-04-08T20:28:02.301Z,99334.84
2023-04-08T20:30:28.732Z,99336.53
2023-04-08T20:32:55.205Z,99334.22
2023-04-08T20:35:22.104Z,99336.81
2023-04-08T20:37:48.691Z,99337.28
2023-04-08T20:40:18.072Z,99335.22
2023-04-08T20:42:44.787Z,99336.47
2023-04-08T20:45:11.756Z,99333.28
2023-04-08T20:47:38.928Z,99345.13
2023-04-08T20:50:06.507Z,99336.34
2023-04-08T20:52:34.214Z,99334.75
2023-04-08T20:55:00.775Z,99327.91
2023-04-08T20:57:27.284Z,99331.59
2023-04-08T20:59:53.747Z,99335.34
2023-04-08T21:02:21.625Z,99334.56
2023-04-08T21:04:48.680Z,99336.31
2023-04-08T21:07:15.227Z,99335.41
2023-04-08T21:09:41.913Z,99336.75
2023-04-08T21:12:08.538Z,99331.25
2023-04-08T21:14:35.035Z,99337.50
2023-04-08T21:17:01.582Z,99341.44
2023-04-08T21:19:27.997Z,99337.03
2023-04-08T21:21:54.416Z,99335.53
2023-04-08T21:24:21.119Z,99346.03
2023-04-08T21:26:47.522Z,99340.44
2023-04-08T21:29:14.077Z,99340.75
2023-04-08T21:31:41.231Z,99342.78
2023-04-08T21:34:07.854Z,99337.06
2023-04-08T21:36:34.348Z,99346.81
2023-04-08T21:39:01.308Z,99353.06
2023-04-08T21:41:30.227Z,99347.25
2023-04-08T21:43:57.144Z,99348.09
2023-04-08T21:46:23.722Z,99348.94
2023-04-08T21:48:50.511Z,99344.50
2023-04-08T21:51:18.062Z,99349.78
2023-04-08T21:53:45.494Z,99347.88
2023-04-08T21:56:13.330Z,99342.28
2023-04-08T21:58:40.135Z,99348.31
2023-04-08T22:01:06.639Z,99350.22
2023-04-08T22:03:33.302Z,99346.50
2023-04-08T22:05:59.869Z,99350.53
2023-04-08T22:08:26.534Z,99344.69
2023-04-08T22:10:53.044Z,99347.03
2023-04-08T22:13:20.546Z,99351.59
2023-04-08T22:15:47.012Z,99338.56
2023-04-08T22:18:13.456Z,99348.19
2023-04-08T22:20:39.799Z,99353.81
2023-04-08T22:23:06.264Z,99347.88
2023-04-08T22:25:32.794Z,99342.38
2023-04-08T22:27:59.190Z,99354.13
2023-04-08T22:30:25.825Z,99344.28
2023-04-08T22:32:52.358Z,99341.72
2023-04-08T22:35:18.872Z,99342.88
2023-04-08T22:37:45.433Z,99345.66
2023-04-08T22:40:12.091Z,99325.19
2023-04-08T22:42:38.682Z,99345.22
2023-04-08T22:45:05.767Z,99332.41
2023-04-08T22:47:32.245Z,99331.34
2023-04-08T22:49:58.651Z,99334.88
2023-04-08T22:52:25.290Z,99338.13
2023-04-08T22:54:51.767Z,99335.38
2023-04-08T22:57:18.214Z,99335.16
2023-04-08T22:59:44.825Z,99329.97
2023-04-08T23:02:11.430Z,99333.97
2023-04-08T23:04:37.906Z,99334.63
2023-04-08T23:07:04.360Z,99339.81
2023-04-08T23:09:30.900Z,99342.59
2023-04-08T23:11:58.172Z,99339.28
2023-04-08T23:14:24.905Z,99339.50
2023-04-08T23:16:51.275Z,99345.88
2023-04-08T23:19:17.690Z,99343.84
2023-04-08T23:21:44.111Z,99337.59
2023-04-08T23:24:11.399Z,99341.19
2023-04-08T23:26:37.773Z,99331.97
2023-04-08T23:29:04.345Z,99342.69
2023-04-08T23:31:30.835Z,99339.78
2023-04-08T23:33:57.354Z,99346.38
2023-04-08T23:36:23.869Z,99352.31
2023-04-08T23:38:51.124Z,99347.03
2023-04-08T23:41:17.761Z,99349.97
2023-04-08T23:43:45.557Z,99334.03
2023-04-08T23:46:12.159Z,99345.09
2023-04-08T23:48:38.603Z,99345.28
2023-04-08T23:51:05.562Z,99343.25
2023-04-08T23:53:32.180Z,99342.28
2023-04-08T23:56:06.586Z,99352.31
2023-04-08T23:58:33.324Z,99346.59
